sensor_id;sensor_type;location;lat;lon;timestamp;P1;durP1;ratioP1;P2;durP2;ratioP2
44842;SDS011;31884;52.538;13.820;2024-03-08T00:00:26;28.30;;;13.45;;
44842;SDS011;31884;52.538;13.820;2024-03-08T00:02:52;23.15;;;11.43;;
44842;SDS011;31884;52.538;13.820;2024-03-08T00:05:17;29.27;;;13.52;;
44842;SDS011;31884;52.538;13.820;2024-03-08T00:07:43;23.10;;;11.45;;
44842;SDS011;31884;52.538;13.820;2024-03-08T00:10:09;22.70;;;11.55;;
44842;SDS011;31884;52.538;13.820;2024-03-08T00:12:36;28.75;;;11.82;;
44842;SDS011;31884;52.538;13.820;2024-03-08T00:15:03;22.13;;;10.80;;
44842;SDS011;31884;52.538;13.820;2024-03-08T00:17:29;23.17;;;11.00;;
44842;SDS011;31884;52.538;13.820;2024-03-08T00:19:54;27.38;;;13.13;;
44842;SDS011;31884;52.538;13.820;2024-03-08T00:22:20;24.83;;;11.20;;
44842;SDS011;31884;52.538;13.820;2024-03-08T00:24:47;23.38;;;11.10;;
44842;SDS011;31884;52.538;13.820;2024-03-08T00:27:14;26.50;;;11.80;;
44842;SDS011;31884;52.538;13.820;2024-03-08T00:29:40;26.40;;;12.45;;
44842;SDS011;31884;52.538;13.820;2024-03-08T00:32:06;27.98;;;11.75;;
44842;SDS011;31884;52.538;13.820;2024-03-08T00:34:34;32.65;;;14.63;;
44842;SDS011;31884;52.538;13.820;2024-03-08T00:37:01;37.13;;;16.13;;
44842;SDS011;31884;52.538;13.820;2024-03-08T00:39:27;32.70;;;14.63;;
44842;SDS011;31884;52.538;13.820;2024-03-08T00:41:52;34.38;;;15.63;;
44842;SDS011;31884;52.538;13.820;2024-03-08T00:44:18;36.53;;;14.73;;
44842;SDS011;31884;52.538;13.820;2024-03-08T00:46:44;28.67;;;15.35;;
44842;SDS011;31884;52.538;13.820;2024-03-08T00:49:09;36.00;;;15.65;;
44842;SDS011;31884;52.538;13.820;2024-03-08T00:51:34;35.00;;;16.05;;
44842;SDS011;31884;52.538;13.820;2024-03-08T00:54:01;32.78;;;15.20;;
44842;SDS011;31884;52.538;13.820;2024-03-08T00:56:26;30.63;;;14.88;;
44842;SDS011;31884;52.538;13.820;2024-03-08T00:58:52;28.70;;;12.80;;
44842;SDS011;31884;52.538;13.820;2024-03-08T01:01:18;31.60;;;14.35;;
44842;SDS011;31884;52.538;13.820;2024-03-08T01:03:44;29.30;;;13.88;;
44842;SDS011;31884;52.538;13.820;2024-03-08T01:06:09;29.00;;;13.77;;
44842;SDS011;31884;52.538;13.820;2024-03-08T01:08:36;28.75;;;13.18;;
44842;SDS011;31884;52.538;13.820;2024-03-08T01:11:03;28.85;;;11.23;;
44842;SDS011;31884;52.538;13.820;2024-03-08T01:13:29;26.08;;;11.80;;
44842;SDS011;31884;52.538;13.820;2024-03-08T01:15:55;25.98;;;11.93;;
44842;SDS011;31884;52.538;13.820;2024-03-08T01:18:21;24.52;;;12.00;;
44842;SDS011;31884;52.538;13.820;2024-03-08T01:20:46;25.73;;;12.80;;
44842;SDS011;31884;52.538;13.820;2024-03-08T01:23:12;26.92;;;12.30;;
44842;SDS011;31884;52.538;13.820;2024-03-08T01:25:38;29.27;;;12.73;;
44842;SDS011;31884;52.538;13.820;2024-03-08T01:28:04;28.92;;;13.77;;
44842;SDS011;31884;52.538;13.820;2024-03-08T01:30:30;28.08;;;12.68;;
44842;SDS011;31884;52.538;13.820;2024-03-08T01:32:57;24.52;;;11.63;;
44842;SDS011;31884;52.538;13.820;2024-03-08T01:35:23;22.40;;;12.10;;
44842;SDS011;31884;52.538;13.820;2024-03-08T01:37:48;24.85;;;11.23;;
44842;SDS011;31884;52.538;13.820;2024-03-08T01:40:14;26.52;;;12.48;;
44842;SDS011;31884;52.538;13.820;2024-03-08T01:42:41;26.25;;;13.57;;
44842;SDS011;31884;52.538;13.820;2024-03-08T01:45:07;26.63;;;12.52;;
44842;SDS011;31884;52.538;13.820;2024-03-08T01:47:33;32.30;;;13.65;;
44842;SDS011;31884;52.538;13.820;2024-03-08T01:49:59;28.40;;;12.90;;
44842;SDS011;31884;52.538;13.820;2024-03-08T01:52:28;31.13;;;14.30;;
44842;SDS011;31884;52.538;13.820;2024-03-08T01:54:56;32.67;;;14.45;;
44842;SDS011;31884;52.538;13.820;2024-03-08T01:57:25;34.97;;;16.05;;
44842;SDS011;31884;52.538;13.820;2024-03-08T01:59:51;34.58;;;15.05;;
44842;SDS011;31884;52.538;13.820;2024-03-08T02:02:19;40.30;;;16.35;;
44842;SDS011;31884;52.538;13.820;2024-03-08T02:04:45;30.30;;;13.60;;
44842;SDS011;31884;52.538;13.820;2024-03-08T02:07:11;42.15;;;18.38;;
44842;SDS011;31884;52.538;13.820;2024-03-08T02:09:36;38.70;;;18.08;;
44842;SDS011;31884;52.538;13.820;2024-03-08T02:12:02;41.15;;;17.85;;
44842;SDS011;31884;52.538;13.820;2024-03-08T02:14:27;38.88;;;17.70;;
44842;SDS011;31884;52.538;13.820;2024-03-08T02:16:53;33.67;;;14.45;;
44842;SDS011;31884;52.538;13.820;2024-03-08T02:19:19;41.10;;;16.45;;
44842;SDS011;31884;52.538;13.820;2024-03-08T02:21:45;30.65;;;13.80;;
44842;SDS011;31884;52.538;13.820;2024-03-08T02:24:12;32.55;;;14.32;;
44842;SDS011;31884;52.538;13.820;2024-03-08T02:26:38;34.70;;;14.32;;
44842;SDS011;31884;52.538;13.820;2024-03-08T02:29:03;35.55;;;14.90;;
44842;SDS011;31884;52.538;13.820;2024-03-08T02:31:30;28.80;;;13.15;;
44842;SDS011;31884;52.538;13.820;2024-03-08T02:33:55;31.55;;;14.18;;
44842;SDS011;31884;52.538;13.820;2024-03-08T02:36:21;31.58;;;13.43;;
44842;SDS011;31884;52.538;13.820;2024-03-08T02:38:46;29.45;;;13.98;;
44842;SDS011;31884;52.538;13.820;2024-03-08T02:41:12;27.20;;;12.50;;
44842;SDS011;31884;52.538;13.820;2024-03-08T02:43:37;35.17;;;15.18;;
44842;SDS011;31884;52.538;13.820;2024-03-08T02:46:03;28.35;;;13.48;;
44842;SDS011;31884;52.538;13.820;2024-03-08T02:48:30;29.80;;;14.23;;
44842;SDS011;31884;52.538;13.820;2024-03-08T02:50:55;38.78;;;18.27;;
44842;SDS011;31884;52.538;13.820;2024-03-08T02:53:21;35.63;;;16.15;;
44842;SDS011;31884;52.538;13.820;2024-03-08T02:55:47;42.85;;;17.98;;
44842;SDS011;31884;52.538;13.820;2024-03-08T02:58:12;44.38;;;18.25;;
44842;SDS011;31884;52.538;13.820;2024-03-08T03:00:39;45.08;;;19.55;;
44842;SDS011;31884;52.538;13.820;2024-03-08T03:03:05;50.75;;;19.08;;
44842;SDS011;31884;52.538;13.820;2024-03-08T03:05:31;41.30;;;17.38;;
44842;SDS011;31884;52.538;13.820;2024-03-08T03:07:57;40.80;;;19.52;;
44842;SDS011;31884;52.538;13.820;2024-03-08T03:10:23;41.38;;;18.23;;
44842;SDS011;31884;52.538;13.820;2024-03-08T03:12:49;40.38;;;18.00;;
44842;SDS011;31884;52.538;13.820;2024-03-08T03:15:15;50.47;;;20.65;;
44842;SDS011;31884;52.538;13.820;2024-03-08T03:17:45;38.78;;;17.70;;
44842;SDS011;31884;52.538;13.820;2024-03-08T03:20:11;42.25;;;17.25;;
44842;SDS011;31884;52.538;13.820;2024-03-08T03:22:47;40.15;;;17.65;;
44842;SDS011;31884;52.538;13.820;2024-03-08T03:25:16;38.25;;;17.33;;
44842;SDS011;31884;52.538;13.820;2024-03-08T03:27:48;41.20;;;18.05;;
44842;SDS011;31884;52.538;13.820;2024-03-08T03:30:14;46.55;;;18.42;;
44842;SDS011;31884;52.538;13.820;2024-03-08T03:32:46;37.22;;;17.83;;
44842;SDS011;31884;52.538;13.820;2024-03-08T03:35:13;44.70;;;20.02;;
44842;SDS011;31884;52.538;13.820;2024-03-08T03:37:40;42.33;;;20.27;;
44842;SDS011;31884;52.538;13.820;2024-03-08T03:40:07;51.13;;;20.30;;
44842;SDS011;31884;52.538;13.820;2024-03-08T03:42:33;50.53;;;21.42;;
44842;SDS011;31884;52.538;13.820;2024-03-08T03:44:59;43.22;;;19.85;;
44842;SDS011;31884;52.538;13.820;2024-03-08T03:47:25;40.35;;;17.48;;
44842;SDS011;31884;52.538;13.820;2024-03-08T03:49:51;45.70;;;19.00;;
44842;SDS011;31884;52.538;13.820;2024-03-08T03:52:18;37.65;;;16.77;;
44842;SDS011;31884;52.538;13.820;2024-03-08T03:54:44;40.97;;;18.00;;
44842;SDS011;31884;52.538;13.820;2024-03-08T03:57:09;35.42;;;17.15;;
44842;SDS011;31884;52.538;13.820;2024-03-08T03:59:35;46.33;;;18.30;;
44842;SDS011;31884;52.538;13.820;2024-03-08T04:02:00;38.38;;;17.35;;
44842;SDS011;31884;52.538;13.820;2024-03-08T04:04:26;33.78;;;15.55;;
44842;SDS011;31884;52.538;13.820;2024-03-08T04:06:51;43.50;;;17.52;;
44842;SDS011;31884;52.538;13.820;2024-03-08T04:09:17;43.38;;;18.52;;
44842;SDS011;31884;52.538;13.820;2024-03-08T04:11:47;49.08;;;20.67;;
44842;SDS011;31884;52.538;13.820;2024-03-08T04:14:13;41.22;;;18.92;;
44842;SDS011;31884;52.538;13.820;2024-03-08T04:16:38;38.95;;;18.02;;
44842;SDS011;31884;52.538;13.820;2024-03-08T04:19:04;38.60;;;17.92;;
44842;SDS011;31884;52.538;13.820;2024-03-08T04:21:29;46.42;;;19.45;;
44842;SDS011;31884;52.538;13.820;2024-03-08T04:23:55;39.30;;;18.45;;
44842;SDS011;31884;52.538;13.820;2024-03-08T04:26:21;40.67;;;18.67;;
44842;SDS011;31884;52.538;13.820;2024-03-08T04:28:46;46.25;;;19.30;;
44842;SDS011;31884;52.538;13.820;2024-03-08T04:31:12;47.35;;;20.42;;
44842;SDS011;31884;52.538;13.820;2024-03-08T04:33:37;48.17;;;20.02;;
44842;SDS011;31884;52.538;13.820;2024-03-08T04:36:03;46.78;;;17.38;;
44842;SDS011;31884;52.538;13.820;2024-03-08T04:38:29;42.72;;;19.23;;
44842;SDS011;31884;52.538;13.820;2024-03-08T04:40:55;58.20;;;23.65;;
44842;SDS011;31884;52.538;13.820;2024-03-08T04:43:22;49.42;;;21.20;;
44842;SDS011;31884;52.538;13.820;2024-03-08T04:45:50;46.30;;;20.42;;
44842;SDS011;31884;52.538;13.820;2024-03-08T04:48:16;50.70;;;20.52;;
44842;SDS011;31884;52.538;13.820;2024-03-08T04:50:41;39.00;;;17.75;;
44842;SDS011;31884;52.538;13.820;2024-03-08T04:53:07;41.83;;;20.60;;
44842;SDS011;31884;52.538;13.820;2024-03-08T04:55:33;46.60;;;20.67;;
44842;SDS011;31884;52.538;13.820;2024-03-08T04:57:59;49.00;;;19.40;;
44842;SDS011;31884;52.538;13.820;2024-03-08T05:00:24;54.97;;;21.80;;
44842;SDS011;31884;52.538;13.820;2024-03-08T05:02:50;45.90;;;22.58;;
44842;SDS011;31884;52.538;13.820;2024-03-08T05:05:18;42.10;;;19.92;;
44842;SDS011;31884;52.538;13.820;2024-03-08T05:07:44;49.58;;;21.60;;
44842;SDS011;31884;52.538;13.820;2024-03-08T05:10:10;49.25;;;21.27;;
44842;SDS011;31884;52.538;13.820;2024-03-08T05:12:36;49.20;;;20.25;;
44842;SDS011;31884;52.538;13.820;2024-03-08T05:15:04;53.22;;;20.17;;
44842;SDS011;31884;52.538;13.820;2024-03-08T05:17:30;46.17;;;20.63;;
44842;SDS011;31884;52.538;13.820;2024-03-08T05:19:55;37.40;;;18.20;;
44842;SDS011;31884;52.538;13.820;2024-03-08T05:22:21;40.22;;;17.95;;
44842;SDS011;31884;52.538;13.820;2024-03-08T05:24:47;42.70;;;21.30;;
44842;SDS011;31884;52.538;13.820;2024-03-08T05:27:13;38.75;;;17.60;;
44842;SDS011;31884;52.538;13.820;2024-03-08T05:29:38;37.22;;;18.05;;
44842;SDS011;31884;52.538;13.820;2024-03-08T05:32:03;62.63;;;24.75;;
44842;SDS011;31884;52.538;13.820;2024-03-08T05:34:29;42.55;;;19.10;;
44842;SDS011;31884;52.538;13.820;2024-03-08T05:36:55;42.10;;;19.92;;
44842;SDS011;31884;52.538;13.820;2024-03-08T05:39:20;44.03;;;19.58;;
44842;SDS011;31884;52.538;13.820;2024-03-08T05:41:46;37.65;;;18.25;;
44842;SDS011;31884;52.538;13.820;2024-03-08T05:44:12;39.03;;;17.63;;
44842;SDS011;31884;52.538;13.820;2024-03-08T05:46:38;42.10;;;18.80;;
44842;SDS011;31884;52.538;13.820;2024-03-08T05:49:04;48.83;;;20.67;;
44842;SDS011;31884;52.538;13.820;2024-03-08T05:51:34;44.40;;;19.42;;
44842;SDS011;31884;52.538;13.820;2024-03-08T05:54:03;62.75;;;27.52;;
44842;SDS011;31884;52.538;13.820;2024-03-08T05:59:02;46.03;;;21.48;;
44842;SDS011;31884;52.538;13.820;2024-03-08T06:01:29;55.67;;;25.05;;
44842;SDS011;31884;52.538;13.820;2024-03-08T06:03:55;57.83;;;24.65;;
44842;SDS011;31884;52.538;13.820;2024-03-08T06:06:22;54.50;;;25.35;;
44842;SDS011;31884;52.538;13.820;2024-03-08T06:08:48;70.00;;;28.00;;
44842;SDS011;31884;52.538;13.820;2024-03-08T06:11:14;72.53;;;29.08;;
44842;SDS011;31884;52.538;13.820;2024-03-08T06:13:42;77.43;;;31.08;;
44842;SDS011;31884;52.538;13.820;2024-03-08T06:16:07;57.08;;;25.70;;
44842;SDS011;31884;52.538;13.820;2024-03-08T06:18:36;69.50;;;28.33;;
44842;SDS011;31884;52.538;13.820;2024-03-08T06:21:02;64.80;;;28.48;;
44842;SDS011;31884;52.538;13.820;2024-03-08T06:23:34;61.78;;;28.42;;
44842;SDS011;31884;52.538;13.820;2024-03-08T06:26:03;60.38;;;27.23;;
44842;SDS011;31884;52.538;13.820;2024-03-08T06:28:29;68.25;;;28.63;;
44842;SDS011;31884;52.538;13.820;2024-03-08T06:30:54;69.97;;;26.38;;
44842;SDS011;31884;52.538;13.820;2024-03-08T06:33:20;64.70;;;27.02;;
44842;SDS011;31884;52.538;13.820;2024-03-08T06:35:45;59.40;;;26.25;;
44842;SDS011;31884;52.538;13.820;2024-03-08T06:38:11;66.70;;;31.05;;
44842;SDS011;31884;52.538;13.820;2024-03-08T06:40:37;57.38;;;26.27;;
44842;SDS011;31884;52.538;13.820;2024-03-08T06:43:02;57.35;;;25.55;;
44842;SDS011;31884;52.538;13.820;2024-03-08T06:45:30;50.72;;;24.38;;
44842;SDS011;31884;52.538;13.820;2024-03-08T06:47:56;57.15;;;27.20;;
44842;SDS011;31884;52.538;13.820;2024-03-08T06:50:22;48.30;;;25.52;;
44842;SDS011;31884;52.538;13.820;2024-03-08T06:52:47;57.97;;;27.35;;
44842;SDS011;31884;52.538;13.820;2024-03-08T06:55:18;52.65;;;25.70;;
44842;SDS011;31884;52.538;13.820;2024-03-08T06:57:44;45.95;;;23.05;;
44842;SDS011;31884;52.538;13.820;2024-03-08T07:00:10;48.58;;;24.67;;
44842;SDS011;31884;52.538;13.820;2024-03-08T07:02:40;47.78;;;24.63;;
44842;SDS011;31884;52.538;13.820;2024-03-08T07:05:06;45.60;;;23.42;;
44842;SDS011;31884;52.538;13.820;2024-03-08T07:07:35;49.28;;;23.73;;
44842;SDS011;31884;52.538;13.820;2024-03-08T07:10:00;40.60;;;21.50;;
44842;SDS011;31884;52.538;13.820;2024-03-08T07:12:26;41.33;;;21.98;;
44842;SDS011;31884;52.538;13.820;2024-03-08T07:14:51;42.10;;;21.10;;
44842;SDS011;31884;52.538;13.820;2024-03-08T07:17:18;33.63;;;19.88;;
44842;SDS011;31884;52.538;13.820;2024-03-08T07:19:43;37.33;;;20.63;;
44842;SDS011;31884;52.538;13.820;2024-03-08T07:22:10;45.55;;;25.00;;
44842;SDS011;31884;52.538;13.820;2024-03-08T07:24:36;47.33;;;23.25;;
44842;SDS011;31884;52.538;13.820;2024-03-08T07:27:17;38.90;;;22.20;;
44842;SDS011;31884;52.538;13.820;2024-03-08T07:29:43;41.92;;;22.85;;
44842;SDS011;31884;52.538;13.820;2024-03-08T07:32:08;35.10;;;19.95;;
44842;SDS011;31884;52.538;13.820;2024-03-08T07:34:46;41.80;;;21.95;;
44842;SDS011;31884;52.538;13.820;2024-03-08T07:37:15;35.75;;;21.52;;
44842;SDS011;31884;52.538;13.820;2024-03-08T07:39:41;40.83;;;23.38;;
44842;SDS011;31884;52.538;13.820;2024-03-08T07:42:08;41.47;;;25.08;;
44842;SDS011;31884;52.538;13.820;2024-03-08T07:44:34;40.20;;;24.00;;
44842;SDS011;31884;52.538;13.820;2024-03-08T07:47:00;41.20;;;24.20;;
44842;SDS011;31884;52.538;13.820;2024-03-08T07:49:25;38.08;;;22.02;;
44842;SDS011;31884;52.538;13.820;2024-03-08T07:51:51;34.90;;;19.95;;
44842;SDS011;31884;52.538;13.820;2024-03-08T07:54:17;39.70;;;23.42;;
44842;SDS011;31884;52.538;13.820;2024-03-08T07:56:42;35.30;;;21.58;;
44842;SDS011;31884;52.538;13.820;2024-03-08T07:59:08;34.30;;;20.08;;
44842;SDS011;31884;52.538;13.820;2024-03-08T08:01:33;35.47;;;21.08;;
44842;SDS011;31884;52.538;13.820;2024-03-08T08:03:59;33.38;;;19.98;;
44842;SDS011;31884;52.538;13.820;2024-03-08T08:06:26;33.92;;;19.85;;
44842;SDS011;31884;52.538;13.820;2024-03-08T08:08:52;34.30;;;20.33;;
44842;SDS011;31884;52.538;13.820;2024-03-08T08:11:18;37.90;;;21.73;;
44842;SDS011;31884;52.538;13.820;2024-03-08T08:13:43;39.97;;;23.08;;
44842;SDS011;31884;52.538;13.820;2024-03-08T08:16:09;36.70;;;23.15;;
44842;SDS011;31884;52.538;13.820;2024-03-08T08:18:35;38.22;;;22.35;;
44842;SDS011;31884;52.538;13.820;2024-03-08T08:21:02;36.33;;;21.27;;
44842;SDS011;31884;52.538;13.820;2024-03-08T08:23:27;34.17;;;20.27;;
44842;SDS011;31884;52.538;13.820;2024-03-08T08:25:54;33.25;;;21.02;;
44842;SDS011;31884;52.538;13.820;2024-03-08T08:28:20;37.35;;;22.05;;
44842;SDS011;31884;52.538;13.820;2024-03-08T08:30:46;34.05;;;21.42;;
44842;SDS011;31884;52.538;13.820;2024-03-08T08:33:11;33.10;;;21.52;;
44842;SDS011;31884;52.538;13.820;2024-03-08T08:35:37;41.50;;;23.60;;
44842;SDS011;31884;52.538;13.820;2024-03-08T08:38:03;38.13;;;22.83;;
44842;SDS011;31884;52.538;13.820;2024-03-08T08:40:32;39.08;;;23.42;;
44842;SDS011;31884;52.538;13.820;2024-03-08T08:42:58;38.08;;;22.65;;
44842;SDS011;31884;52.538;13.820;2024-03-08T08:45:24;37.67;;;23.35;;
44842;SDS011;31884;52.538;13.820;2024-03-08T08:47:50;39.95;;;24.02;;
44842;SDS011;31884;52.538;13.820;2024-03-08T08:50:16;38.42;;;24.38;;
44842;SDS011;31884;52.538;13.820;2024-03-08T08:52:47;33.88;;;20.58;;
44842;SDS011;31884;52.538;13.820;2024-03-08T08:55:14;40.47;;;23.42;;
44842;SDS011;31884;52.538;13.820;2024-03-08T08:57:42;44.42;;;24.13;;
44842;SDS011;31884;52.538;13.820;2024-03-08T09:00:09;37.47;;;22.17;;
44842;SDS011;31884;52.538;13.820;2024-03-08T09:02:39;37.10;;;22.52;;
44842;SDS011;31884;52.538;13.820;2024-03-08T09:05:06;40.13;;;24.05;;
44842;SDS011;31884;52.538;13.820;2024-03-08T09:07:32;34.20;;;21.02;;
44842;SDS011;31884;52.538;13.820;2024-03-08T09:09:58;34.72;;;20.80;;
44842;SDS011;31884;52.538;13.820;2024-03-08T09:12:24;35.05;;;20.95;;
44842;SDS011;31884;52.538;13.820;2024-03-08T09:14:50;35.13;;;22.58;;
44842;SDS011;31884;52.538;13.820;2024-03-08T09:17:16;34.45;;;20.50;;
44842;SDS011;31884;52.538;13.820;2024-03-08T09:19:47;31.30;;;20.42;;
44842;SDS011;31884;52.538;13.820;2024-03-08T09:22:13;35.00;;;20.27;;
44842;SDS011;31884;52.538;13.820;2024-03-08T09:24:39;30.52;;;17.70;;
44842;SDS011;31884;52.538;13.820;2024-03-08T09:27:05;30.80;;;17.98;;
44842;SDS011;31884;52.538;13.820;2024-03-08T09:29:30;30.58;;;17.85;;
44842;SDS011;31884;52.538;13.820;2024-03-08T09:31:56;31.38;;;18.98;;
44842;SDS011;31884;52.538;13.820;2024-03-08T09:34:21;32.75;;;20.17;;
44842;SDS011;31884;52.538;13.820;2024-03-08T09:36:47;29.27;;;18.95;;
44842;SDS011;31884;52.538;13.820;2024-03-08T09:39:13;32.65;;;18.15;;
44842;SDS011;31884;52.538;13.820;2024-03-08T09:41:42;29.67;;;18.40;;
44842;SDS011;31884;52.538;13.820;2024-03-08T09:44:08;33.40;;;18.83;;
44842;SDS011;31884;52.538;13.820;2024-03-08T09:46:34;33.60;;;20.27;;
44842;SDS011;31884;52.538;13.820;2024-03-08T09:48:59;33.97;;;19.80;;
44842;SDS011;31884;52.538;13.820;2024-03-08T09:51:27;27.98;;;18.17;;
44842;SDS011;31884;52.538;13.820;2024-03-08T09:53:53;31.55;;;18.58;;
44842;SDS011;31884;52.538;13.820;2024-03-08T09:56:19;29.50;;;19.10;;
44842;SDS011;31884;52.538;13.820;2024-03-08T09:58:47;36.45;;;21.05;;
44842;SDS011;31884;52.538;13.820;2024-03-08T10:01:31;27.58;;;18.25;;
44842;SDS011;31884;52.538;13.820;2024-03-08T10:03:57;28.30;;;17.92;;
44842;SDS011;31884;52.538;13.820;2024-03-08T10:06:22;35.15;;;20.08;;
44842;SDS011;31884;52.538;13.820;2024-03-08T10:08:49;33.15;;;19.48;;
44842;SDS011;31884;52.538;13.820;2024-03-08T10:11:16;28.30;;;17.75;;
44842;SDS011;31884;52.538;13.820;2024-03-08T10:13:42;27.40;;;17.38;;
44842;SDS011;31884;52.538;13.820;2024-03-08T10:16:11;32.20;;;19.67;;
44842;SDS011;31884;52.538;13.820;2024-03-08T10:18:37;28.42;;;18.35;;
44842;SDS011;31884;52.538;13.820;2024-03-08T10:21:03;34.28;;;19.88;;
44842;SDS011;31884;52.538;13.820;2024-03-08T10:23:29;29.30;;;18.60;;
44842;SDS011;31884;52.538;13.820;2024-03-08T10:25:55;30.95;;;17.90;;
44842;SDS011;31884;52.538;13.820;2024-03-08T10:28:23;32.17;;;17.42;;
44842;SDS011;31884;52.538;13.820;2024-03-08T10:30:49;27.63;;;17.10;;
44842;SDS011;31884;52.538;13.820;2024-03-08T10:33:15;34.58;;;18.98;;
44842;SDS011;31884;52.538;13.820;2024-03-08T10:35:40;36.15;;;19.42;;
44842;SDS011;31884;52.538;13.820;2024-03-08T10:38:06;31.83;;;17.08;;
44842;SDS011;31884;52.538;13.820;2024-03-08T10:40:38;34.08;;;17.70;;
44842;SDS011;31884;52.538;13.820;2024-03-08T10:43:05;37.30;;;20.27;;
44842;SDS011;31884;52.538;13.820;2024-03-08T10:45:37;35.50;;;19.00;;
44842;SDS011;31884;52.538;13.820;2024-03-08T10:48:19;37.78;;;19.25;;
44842;SDS011;31884;52.538;13.820;2024-03-08T10:51:03;33.10;;;18.75;;
44842;SDS011;31884;52.538;13.820;2024-03-08T10:53:29;33.58;;;18.20;;
44842;SDS011;31884;52.538;13.820;2024-03-08T10:55:56;36.13;;;19.10;;
44842;SDS011;31884;52.538;13.820;2024-03-08T10:58:23;31.05;;;16.55;;
44842;SDS011;31884;52.538;13.820;2024-03-08T11:00:53;31.10;;;17.08;;
44842;SDS011;31884;52.538;13.820;2024-03-08T11:06:17;31.48;;;17.30;;
44842;SDS011;31884;52.538;13.820;2024-03-08T11:08:47;29.88;;;16.65;;
44842;SDS011;31884;52.538;13.820;2024-03-08T11:11:25;36.90;;;18.05;;
44842;SDS011;31884;52.538;13.820;2024-03-08T11:13:59;35.58;;;17.23;;
44842;SDS011;31884;52.538;13.820;2024-03-08T11:18:59;34.33;;;18.42;;
44842;SDS011;31884;52.538;13.820;2024-03-08T11:21:29;30.15;;;16.67;;
44842;SDS011;31884;52.538;13.820;2024-03-08T11:26:33;31.73;;;16.30;;
44842;SDS011;31884;52.538;13.820;2024-03-08T11:32:18;32.00;;;17.40;;
44842;SDS011;31884;52.538;13.820;2024-03-08T11:34:47;33.20;;;17.08;;
44842;SDS011;31884;52.538;13.820;2024-03-08T11:37:15;34.90;;;17.83;;
44842;SDS011;31884;52.538;13.820;2024-03-08T11:39:46;32.83;;;17.17;;
44842;SDS011;31884;52.538;13.820;2024-03-08T11:42:16;34.30;;;18.90;;
44842;SDS011;31884;52.538;13.820;2024-03-08T11:44:45;31.00;;;18.15;;
44842;SDS011;31884;52.538;13.820;2024-03-08T11:47:12;32.70;;;17.83;;
44842;SDS011;31884;52.538;13.820;2024-03-08T11:49:39;30.30;;;18.33;;
44842;SDS011;31884;52.538;13.820;2024-03-08T11:52:10;33.92;;;18.13;;
44842;SDS011;31884;52.538;13.820;2024-03-08T11:54:38;32.72;;;17.15;;
44842;SDS011;31884;52.538;13.820;2024-03-08T11:57:04;31.88;;;17.08;;
44842;SDS011;31884;52.538;13.820;2024-03-08T11:59:29;31.63;;;17.52;;
44842;SDS011;31884;52.538;13.820;2024-03-08T12:02:02;30.83;;;17.40;;
44842;SDS011;31884;52.538;13.820;2024-03-08T12:04:29;35.90;;;19.00;;
44842;SDS011;31884;52.538;13.820;2024-03-08T12:06:55;37.00;;;19.60;;
44842;SDS011;31884;52.538;13.820;2024-03-08T12:09:24;30.58;;;18.77;;
44842;SDS011;31884;52.538;13.820;2024-03-08T12:11:50;31.63;;;17.58;;
44842;SDS011;31884;52.538;13.820;2024-03-08T12:14:16;39.50;;;20.23;;
44842;SDS011;31884;52.538;13.820;2024-03-08T12:16:42;34.42;;;18.77;;
44842;SDS011;31884;52.538;13.820;2024-03-08T12:19:08;33.28;;;18.35;;
44842;SDS011;31884;52.538;13.820;2024-03-08T12:21:35;34.13;;;18.60;;
44842;SDS011;31884;52.538;13.820;2024-03-08T12:24:08;32.35;;;18.02;;
44842;SDS011;31884;52.538;13.820;2024-03-08T12:26:37;31.63;;;18.52;;
44842;SDS011;31884;52.538;13.820;2024-03-08T12:29:20;32.17;;;17.45;;
44842;SDS011;31884;52.538;13.820;2024-03-08T12:31:47;32.85;;;18.00;;
44842;SDS011;31884;52.538;13.820;2024-03-08T12:34:15;32.60;;;18.17;;
44842;SDS011;31884;52.538;13.820;2024-03-08T12:36:50;34.38;;;19.08;;
44842;SDS011;31884;52.538;13.820;2024-03-08T12:39:18;33.50;;;17.77;;
44842;SDS011;31884;52.538;13.820;2024-03-08T12:41:48;36.63;;;20.92;;
44842;SDS011;31884;52.538;13.820;2024-03-08T12:44:16;34.15;;;19.63;;
44842;SDS011;31884;52.538;13.820;2024-03-08T12:46:43;35.00;;;20.10;;
44842;SDS011;31884;52.538;13.820;2024-03-08T12:49:10;32.95;;;17.77;;
44842;SDS011;31884;52.538;13.820;2024-03-08T12:51:37;45.15;;;22.70;;
44842;SDS011;31884;52.538;13.820;2024-03-08T12:54:03;32.65;;;18.55;;
44842;SDS011;31884;52.538;13.820;2024-03-08T12:56:32;38.55;;;20.33;;
44842;SDS011;31884;52.538;13.820;2024-03-08T12:58:59;33.60;;;17.60;;
44842;SDS011;31884;52.538;13.820;2024-03-08T13:01:25;39.55;;;20.48;;
44842;SDS011;31884;52.538;13.820;2024-03-08T13:03:52;35.75;;;19.65;;
44842;SDS011;31884;52.538;13.820;2024-03-08T13:06:20;36.20;;;19.60;;
44842;SDS011;31884;52.538;13.820;2024-03-08T13:08:49;34.92;;;18.52;;
44842;SDS011;31884;52.538;13.820;2024-03-08T13:11:15;30.58;;;17.83;;
44842;SDS011;31884;52.538;13.820;2024-03-08T13:13:41;36.42;;;20.00;;
44842;SDS011;31884;52.538;13.820;2024-03-08T13:16:08;36.80;;;18.58;;
44842;SDS011;31884;52.538;13.820;2024-03-08T13:18:34;34.47;;;18.30;;
44842;SDS011;31884;52.538;13.820;2024-03-08T13:21:00;35.58;;;18.83;;
44842;SDS011;31884;52.538;13.820;2024-03-08T13:23:30;34.08;;;18.27;;
44842;SDS011;31884;52.538;13.820;2024-03-08T13:25:55;34.85;;;18.30;;
44842;SDS011;31884;52.538;13.820;2024-03-08T13:28:22;36.75;;;18.23;;
44842;SDS011;31884;52.538;13.820;2024-03-08T13:30:48;32.15;;;18.50;;
44842;SDS011;31884;52.538;13.820;2024-03-08T13:33:13;34.85;;;17.70;;
44842;SDS011;31884;52.538;13.820;2024-03-08T13:35:39;31.00;;;16.65;;
44842;SDS011;31884;52.538;13.820;2024-03-08T13:38:06;36.63;;;17.70;;
44842;SDS011;31884;52.538;13.820;2024-03-08T13:40:34;29.50;;;15.32;;
44842;SDS011;31884;52.538;13.820;2024-03-08T13:43:00;28.13;;;16.75;;
44842;SDS011;31884;52.538;13.820;2024-03-08T13:45:25;31.17;;;16.75;;
44842;SDS011;31884;52.538;13.820;2024-03-08T13:47:52;33.33;;;17.02;;
44842;SDS011;31884;52.538;13.820;2024-03-08T13:50:18;31.58;;;16.50;;
44842;SDS011;31884;52.538;13.820;2024-03-08T13:52:47;31.50;;;15.45;;
44842;SDS011;31884;52.538;13.820;2024-03-08T13:55:18;24.95;;;13.48;;
44842;SDS011;31884;52.538;13.820;2024-03-08T13:57:44;24.80;;;14.00;;
44842;SDS011;31884;52.538;13.820;2024-03-08T14:00:10;25.60;;;13.73;;
44842;SDS011;31884;52.538;13.820;2024-03-08T14:02:37;24.45;;;14.00;;
44842;SDS011;31884;52.538;13.820;2024-03-08T14:05:05;24.75;;;13.45;;
44842;SDS011;31884;52.538;13.820;2024-03-08T14:07:33;21.05;;;11.75;;
44842;SDS011;31884;52.538;13.820;2024-03-08T14:10:02;23.80;;;11.95;;
44842;SDS011;31884;52.538;13.820;2024-03-08T14:12:28;22.85;;;11.75;;
44842;SDS011;31884;52.538;13.820;2024-03-08T14:14:53;22.67;;;11.73;;
44842;SDS011;31884;52.538;13.820;2024-03-08T14:17:19;19.85;;;10.10;;
44842;SDS011;31884;52.538;13.820;2024-03-08T14:19:45;24.63;;;11.68;;